createdAt,value
2018-03-24T00:01:13.894Z,78.84
2018-03-24T00:03:42.630Z,79.18
2018-03-24T00:06:11.267Z,79.70
2018-03-24T00:08:39.790Z,80.02
2018-03-24T00:11:08.378Z,80.34
2018-03-24T00:13:37.976Z,80.48
2018-03-24T00:16:08.081Z,80.57
2018-03-24T00:18:36.691Z,80.99
2018-03-24T00:21:05.257Z,81.03
2018-03-24T00:23:34.075Z,81.24
2018-03-24T00:26:02.912Z,81.37
2018-03-24T00:28:32.444Z,81.46
2018-03-24T00:31:01.178Z,81.44
2018-03-24T00:33:30.719Z,81.57
2018-03-24T00:35:59.545Z,81.99
2018-03-24T00:38:28.189Z,82.25
2018-03-24T00:40:56.861Z,82.34
2018-03-24T00:43:25.767Z,82.10
2018-03-24T00:45:55.516Z,81.53
2018-03-24T00:48:25.006Z,81.17
2018-03-24T00:50:53.672Z,81.11
2018-03-24T00:53:22.397Z,81.18
2018-03-24T00:55:51.195Z,81.35
2018-03-24T00:58:19.818Z,81.27
2018-03-24T01:00:48.524Z,81.58
2018-03-24T01:03:17.190Z,81.58
2018-03-24T01:05:45.757Z,81.57
2018-03-24T01:08:14.363Z,81.71
2018-03-24T01:10:44.538Z,81.91
2018-03-24T01:13:13.183Z,82.75
2018-03-24T01:15:42.302Z,82.91
2018-03-24T01:18:11.697Z,83.19
2018-03-24T01:20:40.626Z,83.36
2018-03-24T01:23:09.349Z,83.36
2018-03-24T01:25:38.712Z,83.34
2018-03-24T01:28:07.468Z,83.45
2018-03-24T01:30:37.012Z,83.69
2018-03-24T01:33:06.314Z,83.67
2018-03-24T01:35:34.956Z,83.71
2018-03-24T01:38:03.569Z,83.65
2018-03-24T01:40:32.166Z,83.56
2018-03-24T01:43:00.762Z,83.75
2018-03-24T01:45:30.196Z,83.96
2018-03-24T01:48:00.336Z,83.96
2018-03-24T01:50:30.249Z,83.91
2018-03-24T01:52:59.632Z,83.98
2018-03-24T01:55:28.266Z,83.87
2018-03-24T01:57:56.822Z,84.08
2018-03-24T02:00:25.581Z,83.93
2018-03-24T02:02:54.158Z,83.40
2018-03-24T02:05:22.796Z,83.12
2018-03-24T02:07:52.273Z,83.15
2018-03-24T02:10:20.944Z,83.35
2018-03-24T02:12:50.293Z,83.42
2018-03-24T02:15:19.036Z,83.61
2018-03-24T02:17:47.704Z,83.82
2018-03-24T02:20:16.999Z,84.41
2018-03-24T02:22:46.428Z,84.51
2018-03-24T02:25:19.271Z,84.44
2018-03-24T02:27:47.873Z,84.42
2018-03-24T02:30:16.584Z,84.38
2018-03-24T02:32:45.186Z,84.44
2018-03-24T02:35:14.611Z,84.20
2018-03-24T02:37:43.287Z,84.11
2018-03-24T02:40:11.952Z,84.47
2018-03-24T02:42:40.662Z,84.65
2018-03-24T02:45:09.391Z,84.82
2018-03-24T02:47:39.196Z,84.89
2018-03-24T02:50:08.618Z,84.98
2018-03-24T02:52:37.205Z,85.26
2018-03-24T02:55:05.820Z,85.20
2018-03-24T02:57:35.112Z,85.19
2018-03-24T03:00:03.886Z,84.79
2018-03-24T03:02:33.188Z,85.10
2018-03-24T03:05:01.996Z,85.40
2018-03-24T03:07:30.736Z,85.43
2018-03-24T03:09:59.279Z,85.39
2018-03-24T03:12:28.041Z,85.60
2018-03-24T03:14:57.409Z,86.12
2018-03-24T03:17:26.336Z,86.31
2018-03-24T03:19:55.773Z,86.79
2018-03-24T03:22:25.035Z,86.85
2018-03-24T03:24:53.718Z,86.96
2018-03-24T03:27:23.169Z,87.00
2018-03-24T03:29:51.933Z,86.66
2018-03-24T03:32:21.588Z,86.66
2018-03-24T03:34:50.268Z,86.91
2018-03-24T03:37:19.041Z,86.96
2018-03-24T03:39:47.626Z,86.82
2018-03-24T03:42:16.222Z,86.58
2018-03-24T03:44:45.190Z,86.49
2018-03-24T03:47:14.476Z,86.61
2018-03-24T03:49:43.296Z,86.62
2018-03-24T03:52:12.391Z,86.86
2018-03-24T03:54:41.488Z,86.98
2018-03-24T03:57:10.886Z,86.84
2018-03-24T03:59:39.446Z,86.92
2018-03-24T04:02:08.070Z,87.05
2018-03-24T04:04:36.666Z,86.65
2018-03-24T04:07:05.341Z,86.51
2018-03-24T04:09:34.679Z,86.35
2018-03-24T04:12:03.218Z,86.37
2018-03-24T04:14:31.806Z,86.88
2018-03-24T04:17:00.588Z,87.18
2018-03-24T04:19:29.261Z,87.24
2018-03-24T04:21:57.987Z,87.17
2018-03-24T04:24:28.231Z,87.05
2018-03-24T04:26:57.657Z,86.89
2018-03-24T04:29:27.045Z,86.78
2018-03-24T04:31:55.660Z,86.72
2018-03-24T04:34:24.438Z,86.82
2018-03-24T04:36:53.020Z,87.16
2018-03-24T04:39:21.766Z,87.93
2018-03-24T04:41:50.422Z,87.87
2018-03-24T04:44:19.062Z,87.92
2018-03-24T04:46:47.757Z,88.00
2018-03-24T04:49:16.355Z,88.01
2018-03-24T04:51:45.630Z,88.03
2018-03-24T04:54:14.591Z,87.97
2018-03-24T04:56:43.742Z,87.89
2018-03-24T04:59:12.696Z,87.47
2018-03-24T05:01:42.082Z,87.19
2018-03-24T05:04:10.712Z,86.95
2018-03-24T05:06:40.172Z,86.98
2018-03-24T05:09:09.144Z,87.34
2018-03-24T05:11:38.501Z,87.46
2018-03-24T05:14:07.122Z,87.81
2018-03-24T05:16:35.798Z,88.00
2018-03-24T05:19:04.590Z,88.14
2018-03-24T05:21:34.110Z,88.35
2018-03-24T05:24:02.888Z,88.47
2018-03-24T05:26:31.881Z,88.47
2018-03-24T05:29:01.170Z,88.65
2018-03-24T05:31:30.583Z,88.77
2018-03-24T05:34:00.055Z,88.75
2018-03-24T05:36:28.793Z,88.82
2018-03-24T05:38:57.592Z,89.32
2018-03-24T05:41:26.383Z,90.73
2018-03-24T05:43:55.215Z,90.53
2018-03-24T05:46:23.858Z,88.83
2018-03-24T05:48:54.384Z,86.59
2018-03-24T05:51:23.107Z,78.67
2018-03-24T05:53:52.601Z,75.50
2018-03-24T05:56:23.237Z,76.33
2018-03-24T05:58:52.047Z,73.40
2018-03-24T06:01:20.737Z,67.46
2018-03-24T06:03:49.480Z,67.77
2018-03-24T06:06:18.243Z,66.19
2018-03-24T06:08:46.877Z,63.72
2018-03-24T06:11:15.571Z,62.40
2018-03-24T06:13:44.291Z,60.70
2018-03-24T06:16:16.507Z,59.21
2018-03-24T06:22:20.341Z,56.21
2018-03-24T06:24:49.086Z,56.43
2018-03-24T06:27:17.780Z,55.97
2018-03-24T06:29:46.594Z,54.47
2018-03-24T06:32:15.678Z,53.63
2018-03-24T06:34:45.132Z,52.50
2018-03-24T06:37:16.664Z,49.87
2018-03-24T06:39:46.099Z,49.61
2018-03-24T06:42:14.825Z,48.57
2018-03-24T06:44:43.402Z,47.84
2018-03-24T06:47:12.038Z,46.80
2018-03-24T06:49:40.671Z,46.04
2018-03-24T06:52:09.408Z,45.04
2018-03-24T06:54:38.804Z,44.09
2018-03-24T06:57:07.557Z,42.81
2018-03-24T06:59:39.902Z,42.33
2018-03-24T07:02:09.239Z,42.31
2018-03-24T07:04:38.564Z,42.25
2018-03-24T07:07:07.162Z,41.22
2018-03-24T07:09:35.919Z,39.85
2018-03-24T07:12:04.660Z,39.18
2018-03-24T07:14:34.329Z,39.23
2018-03-24T07:17:03.102Z,38.95
2018-03-24T07:19:32.100Z,38.42
2018-03-24T07:22:00.912Z,38.37
2018-03-24T07:24:29.714Z,37.65
2018-03-24T07:26:58.322Z,36.90
2018-03-24T07:29:27.776Z,36.21
2018-03-24T07:31:57.166Z,35.35
2018-03-24T07:34:26.777Z,34.21
2018-03-24T07:36:55.505Z,33.96
2018-03-24T07:39:24.131Z,33.96
2018-03-24T07:41:53.153Z,34.47
2018-03-24T07:44:21.803Z,34.41
2018-03-24T07:46:50.548Z,33.88
2018-03-24T07:49:19.256Z,34.41
2018-03-24T07:51:47.886Z,33.57
2018-03-24T07:54:16.652Z,34.76
2018-03-24T07:56:45.361Z,33.59
2018-03-24T08:00:03.377Z,32.40
2018-03-24T08:02:32.048Z,31.82
2018-03-24T08:05:01.892Z,31.89
2018-03-24T08:07:30.716Z,31.95
2018-03-24T08:09:59.444Z,30.71
2018-03-24T08:12:28.182Z,31.76
2018-03-24T08:14:56.956Z,32.44
2018-03-24T08:17:25.555Z,33.65
2018-03-24T08:19:54.208Z,31.80
2018-03-24T08:22:22.763Z,30.06
2018-03-24T08:24:51.485Z,31.30
2018-03-24T08:27:20.373Z,30.76
2018-03-24T08:29:50.000Z,31.76
2018-03-24T08:32:18.923Z,29.84
2018-03-24T08:34:47.599Z,28.32
2018-03-24T08:37:16.646Z,28.32
2018-03-24T08:39:45.681Z,27.02
2018-03-24T08:42:14.437Z,27.73
2018-03-24T08:44:43.724Z,28.60
2018-03-24T08:47:12.682Z,28.10
2018-03-24T08:49:41.376Z,27.98
2018-03-24T08:52:10.888Z,27.53
2018-03-24T08:54:44.348Z,25.55
2018-03-24T08:57:13.438Z,25.42
2018-03-24T08:59:42.413Z,24.40
2018-03-24T09:02:11.111Z,24.88
2018-03-24T09:04:39.803Z,25.86
2018-03-24T09:07:08.407Z,29.26
2018-03-24T09:09:37.041Z,31.29
2018-03-24T09:12:05.789Z,31.68
2018-03-24T09:14:34.472Z,32.11
2018-03-24T09:17:03.800Z,32.00
2018-03-24T09:19:33.332Z,29.23
2018-03-24T09:22:01.943Z,30.20
2018-03-24T09:24:30.604Z,29.85
2018-03-24T09:26:59.545Z,28.68
2018-03-24T09:29:28.448Z,28.71
2018-03-24T09:31:58.249Z,28.86
2018-03-24T09:34:26.906Z,30.94
2018-03-24T09:36:55.679Z,31.25
2018-03-24T09:39:24.309Z,29.10
2018-03-24T09:41:53.900Z,25.37
2018-03-24T09:44:22.481Z,27.42
2018-03-24T09:46:51.137Z,30.25
2018-03-24T09:49:21.020Z,30.89
2018-03-24T09:51:49.641Z,31.85
2018-03-24T09:54:19.164Z,29.24
2018-03-24T09:56:47.845Z,32.13
2018-03-24T09:59:16.741Z,32.77
2018-03-24T10:01:46.654Z,31.63
2018-03-24T10:04:16.765Z,31.21
2018-03-24T10:06:45.509Z,30.61
2018-03-24T10:09:15.272Z,31.40
2018-03-24T10:11:43.946Z,32.50
2018-03-24T10:14:13.932Z,32.19
2018-03-24T10:16:42.550Z,32.71
2018-03-24T10:19:11.449Z,31.93
2018-03-24T10:24:49.848Z,28.05
2018-03-24T10:27:18.867Z,26.27
2018-03-24T10:29:47.872Z,23.81
2018-03-24T10:32:17.148Z,22.54
2018-03-24T10:34:45.873Z,22.97
2018-03-24T10:37:14.728Z,23.46
2018-03-24T10:39:43.820Z,23.02
2018-03-24T10:42:13.223Z,21.83
2018-03-24T10:44:42.071Z,22.01
2018-03-24T10:47:10.915Z,23.03
2018-03-24T10:49:39.648Z,23.30
2018-03-24T10:52:08.488Z,21.45
2018-03-24T10:54:37.181Z,22.37
2018-03-24T10:57:06.911Z,24.92
2018-03-24T10:59:36.795Z,25.09
2018-03-24T11:02:06.120Z,26.49
2018-03-24T11:04:34.727Z,28.25
2018-03-24T11:07:03.387Z,28.90
2018-03-24T11:09:31.974Z,29.74
2018-03-24T11:12:01.440Z,29.74
2018-03-24T11:14:30.096Z,29.20
2018-03-24T11:16:58.825Z,28.55
2018-03-24T11:19:28.456Z,29.15
2018-03-24T11:21:57.854Z,28.08
2018-03-24T11:24:26.641Z,25.75
2018-03-24T11:26:55.475Z,24.65
2018-03-24T11:29:24.270Z,24.74
2018-03-24T11:31:53.236Z,23.86
2018-03-24T11:34:22.884Z,23.27
2018-03-24T11:36:52.029Z,24.24
2018-03-24T11:39:20.705Z,25.46
2018-03-24T11:41:49.368Z,25.63
2018-03-24T11:44:18.086Z,26.16
2018-03-24T11:46:47.570Z,25.90
2018-03-24T11:49:16.268Z,23.99
2018-03-24T11:51:45.037Z,22.28
2018-03-24T11:54:14.570Z,21.71
2018-03-24T11:56:43.209Z,21.14
2018-03-24T11:59:11.862Z,21.22
2018-03-24T12:01:41.371Z,22.08
2018-03-24T12:04:11.370Z,22.47
2018-03-24T12:06:40.411Z,21.36
2018-03-24T12:09:09.187Z,19.61
2018-03-24T12:11:37.792Z,19.46
2018-03-24T12:14:06.886Z,20.23
2018-03-24T12:16:35.694Z,21.55
2018-03-24T12:19:04.366Z,21.97
2018-03-24T12:21:33.020Z,21.69
2018-03-24T12:24:01.598Z,23.24
2018-03-24T12:26:31.122Z,23.38
2018-03-24T12:28:59.823Z,25.20
2018-03-24T12:31:28.550Z,25.84
2018-03-24T12:33:58.098Z,25.87
2018-03-24T12:36:28.427Z,26.61
2018-03-24T12:38:57.150Z,26.64
2018-03-24T12:41:25.864Z,26.47
2018-03-24T12:43:54.816Z,26.47
2018-03-24T12:46:23.485Z,26.72
2018-03-24T12:48:52.123Z,27.11
2018-03-24T12:51:20.805Z,27.60
2018-03-24T12:53:49.678Z,27.12
2018-03-24T12:56:19.341Z,28.01
2018-03-24T12:58:48.205Z,27.28
2018-03-24T13:01:18.076Z,25.84
2018-03-24T13:03:46.690Z,25.82
2018-03-24T13:06:15.698Z,24.42
2018-03-24T13:08:45.451Z,22.70
2018-03-24T13:11:14.397Z,21.28
2018-03-24T13:13:43.196Z,21.90
2018-03-24T13:16:12.467Z,21.62
2018-03-24T13:18:41.340Z,22.58
2018-03-24T13:21:10.958Z,24.15
2018-03-24T13:23:39.580Z,24.51
2018-03-24T13:26:09.182Z,24.18
2018-03-24T13:28:37.779Z,24.68
2018-03-24T13:31:06.630Z,25.55
2018-03-24T13:33:36.619Z,26.06
2018-03-24T13:36:06.599Z,26.87
2018-03-24T13:38:36.448Z,25.23
2018-03-24T13:41:05.326Z,24.82
2018-03-24T13:43:35.290Z,24.43
2018-03-24T13:46:03.986Z,25.48
2018-03-24T13:48:32.744Z,25.62
2018-03-24T13:51:01.413Z,25.84
2018-03-24T13:53:30.084Z,26.60
2018-03-24T13:55:58.780Z,26.41
2018-03-24T13:58:28.119Z,26.49
2018-03-24T14:00:56.964Z,26.74
2018-03-24T14:03:25.835Z,27.26
2018-03-24T14:05:54.528Z,27.96
2018-03-24T14:08:27.799Z,28.45
2018-03-24T14:10:56.603Z,29.66
2018-03-24T14:13:25.518Z,29.58
2018-03-24T14:15:54.278Z,29.12
2018-03-24T14:18:23.270Z,29.28
2018-03-24T14:20:52.405Z,28.65
2018-03-24T14:23:22.027Z,28.03
2018-03-24T14:25:50.797Z,27.95
2018-03-24T14:28:19.560Z,28.07
2018-03-24T14:30:48.482Z,28.94
2018-03-24T14:33:18.717Z,28.86
2018-03-24T14:35:47.841Z,29.06
2018-03-24T14:38:18.624Z,28.95
2018-03-24T14:40:48.438Z,28.80
2018-03-24T14:43:17.168Z,28.97
2018-03-24T14:45:45.890Z,28.53
2018-03-24T14:48:14.644Z,28.16
2018-03-24T14:50:43.450Z,28.37
2018-03-24T14:53:12.095Z,28.60
2018-03-24T14:55:41.722Z,29.29
2018-03-24T14:58:10.446Z,29.14
2018-03-24T15:00:39.130Z,29.27
2018-03-24T15:03:08.473Z,29.75
2018-03-24T15:05:38.417Z,29.91
2018-03-24T15:08:07.500Z,30.54
2018-03-24T15:10:37.589Z,30.41
2018-03-24T15:13:06.221Z,30.01
2018-03-24T15:15:35.591Z,30.70
2018-03-24T15:18:05.016Z,30.51
2018-03-24T15:20:33.743Z,30.57
2018-03-24T15:23:02.344Z,31.17
2018-03-24T15:25:31.083Z,31.96
2018-03-24T15:28:03.526Z,31.01
2018-03-24T15:30:52.397Z,31.26
2018-03-24T15:33:39.610Z,31.20
2018-03-24T15:36:26.281Z,31.02
2018-03-24T15:38:58.931Z,31.52
2018-03-24T15:41:28.262Z,31.49
2018-03-24T15:43:56.976Z,31.25
2018-03-24T15:46:25.839Z,31.53
2018-03-24T15:48:54.899Z,31.58
2018-03-24T15:51:24.202Z,31.59
2018-03-24T15:53:52.919Z,31.21
2018-03-24T15:56:21.578Z,30.56
2018-03-24T15:58:50.605Z,30.22
2018-03-24T16:01:19.659Z,28.88
2018-03-24T16:03:48.759Z,29.10
2018-03-24T16:06:18.197Z,29.96
2018-03-24T16:08:47.060Z,30.15
2018-03-24T16:11:15.805Z,30.46
2018-03-24T16:13:44.654Z,30.34
2018-03-24T16:16:14.372Z,30.80
2018-03-24T16:18:43.934Z,30.81
2018-03-24T16:21:13.570Z,31.15
2018-03-24T16:23:42.459Z,31.93
2018-03-24T16:26:12.261Z,31.84
2018-03-24T16:28:42.030Z,31.72
2018-03-24T16:31:11.840Z,31.69
2018-03-24T16:33:40.820Z,31.75
2018-03-24T16:36:09.836Z,31.81
2018-03-24T16:38:38.705Z,31.90
2018-03-24T16:41:07.685Z,31.54
2018-03-24T16:43:37.642Z,31.64
2018-03-24T16:46:08.052Z,32.13
2018-03-24T16:48:37.693Z,32.46
2018-03-24T16:51:06.817Z,32.58
2018-03-24T16:53:35.858Z,32.76
2018-03-24T16:56:05.069Z,33.47
2018-03-24T16:58:34.899Z,34.04
2018-03-24T17:01:04.734Z,34.22
2018-03-24T17:03:34.732Z,34.95
2018-03-24T17:06:04.053Z,35.00
2018-03-24T17:08:35.287Z,35.51
2018-03-24T17:11:06.892Z,36.25
2018-03-24T17:13:37.955Z,36.17
2018-03-24T17:16:08.055Z,36.25
2018-03-24T17:18:37.359Z,36.91
2018-03-24T17:21:07.157Z,36.95
2018-03-24T17:23:37.378Z,37.07
2018-03-24T17:26:11.429Z,37.35
2018-03-24T17:28:41.642Z,37.94
2018-03-24T17:31:11.570Z,38.14
2018-03-24T17:33:42.097Z,38.72
2018-03-24T17:36:13.179Z,39.18
2018-03-24T17:38:43.076Z,39.77
2018-03-24T17:41:13.001Z,40.17
2018-03-24T17:43:42.903Z,40.99
2018-03-24T17:46:12.869Z,41.26
2018-03-24T17:48:42.131Z,41.73
2018-03-24T17:51:16.433Z,44.08
2018-03-24T17:53:47.325Z,45.65
2018-03-24T17:56:22.168Z,46.01
2018-03-24T17:58:53.473Z,46.39
2018-03-24T18:01:24.975Z,47.02
2018-03-24T18:03:54.606Z,47.44
2018-03-24T18:06:25.089Z,48.41
2018-03-24T18:08:54.155Z,47.96
2018-03-24T18:11:24.265Z,48.40
2018-03-24T18:13:54.123Z,49.09
2018-03-24T18:16:23.335Z,49.33
2018-03-24T18:18:53.158Z,50.05
2018-03-24T18:21:23.183Z,50.94
2018-03-24T18:23:52.675Z,52.39
2018-03-24T18:26:22.807Z,52.49
2018-03-24T18:28:52.934Z,52.36
2018-03-24T18:31:22.430Z,53.71
2018-03-24T18:33:52.263Z,54.69
2018-03-24T18:36:23.021Z,55.53
2018-03-24T18:38:53.062Z,55.92
2018-03-24T18:41:23.004Z,56.30
2018-03-24T18:43:52.002Z,56.89
2018-03-24T18:46:33.485Z,57.48
2018-03-24T18:49:09.520Z,58.18
2018-03-24T18:51:39.286Z,58.13
2018-03-24T18:54:08.398Z,57.97
2018-03-24T18:56:38.368Z,58.04
2018-03-24T18:59:07.742Z,58.26
2018-03-24T19:01:36.981Z,57.34
2018-03-24T19:04:06.821Z,58.35
2018-03-24T19:06:36.692Z,58.78
2018-03-24T19:09:07.107Z,58.83
2018-03-24T19:11:37.307Z,59.04
2018-03-24T19:14:09.009Z,59.31
2018-03-24T19:16:39.034Z,59.62
2018-03-24T19:19:08.039Z,59.71
2018-03-24T19:21:38.017Z,61.26
2018-03-24T19:24:07.168Z,61.81
2018-03-24T19:26:36.191Z,62.87
2018-03-24T19:29:05.466Z,63.16
2018-03-24T19:31:34.674Z,63.19
2018-03-24T19:34:04.507Z,63.74
2018-03-24T19:36:34.326Z,64.16
2018-03-24T19:39:04.782Z,64.59
2018-03-24T19:41:36.224Z,64.46
2018-03-24T19:44:05.359Z,64.44
2018-03-24T19:46:36.544Z,64.15
2018-03-24T19:49:05.813Z,64.18
2018-03-24T19:51:36.793Z,64.41
2018-03-24T19:54:06.295Z,64.65
2018-03-24T19:56:35.789Z,65.02
2018-03-24T19:59:05.037Z,65.20
2018-03-24T20:01:34.604Z,65.41
2018-03-24T20:04:05.248Z,65.26
2018-03-24T20:06:35.063Z,65.33
2018-03-24T20:09:04.215Z,65.84
2018-03-24T20:11:34.771Z,66.00
2018-03-24T20:14:04.322Z,66.45
2018-03-24T20:16:33.559Z,66.80
2018-03-24T20:19:03.357Z,67.05
2018-03-24T20:21:32.439Z,67.17
2018-03-24T20:24:01.686Z,67.29
2018-03-24T20:26:30.823Z,67.75
2018-03-24T20:29:00.390Z,68.06
2018-03-24T20:31:29.997Z,68.32
2018-03-24T20:34:00.630Z,69.11
2018-03-24T20:36:31.785Z,69.60
2018-03-24T20:39:04.021Z,69.57
2018-03-24T20:41:33.364Z,69.48
2018-03-24T20:46:46.179Z,70.18
2018-03-24T20:49:15.983Z,70.34
2018-03-24T20:51:45.588Z,70.24
2018-03-24T20:54:15.713Z,71.19
2018-03-24T20:56:46.660Z,71.55
2018-03-24T20:59:16.808Z,71.56
2018-03-24T21:01:48.801Z,71.56
2018-03-24T21:04:42.503Z,71.13
2018-03-24T21:07:12.601Z,71.06
2018-03-24T21:09:42.178Z,72.09
2018-03-24T21:12:12.284Z,73.14
2018-03-24T21:14:42.170Z,73.01
2018-03-24T21:17:18.148Z,72.99
2018-03-24T21:19:49.165Z,73.09
2018-03-24T21:22:20.432Z,72.44
2018-03-24T21:24:49.884Z,72.35
2018-03-24T21:27:19.893Z,72.25
2018-03-24T21:29:50.435Z,72.62
2018-03-24T21:32:20.921Z,73.10
2018-03-24T21:34:50.797Z,73.82
2018-03-24T21:37:21.447Z,74.11
2018-03-24T21:39:51.114Z,74.29
2018-03-24T21:42:19.909Z,74.37
2018-03-24T21:44:50.927Z,74.54
2018-03-24T21:47:19.713Z,74.87
2018-03-24T21:49:49.240Z,75.28
2018-03-24T21:52:17.953Z,75.56
2018-03-24T21:54:47.068Z,75.90
2018-03-24T21:57:18.010Z,76.14
2018-03-24T21:59:47.641Z,76.97
2018-03-24T22:02:16.894Z,77.24
2018-03-24T22:04:45.662Z,77.53
2018-03-24T22:07:14.430Z,77.58
2018-03-24T22:09:43.120Z,77.09
2018-03-24T22:12:12.509Z,76.40
2018-03-24T22:14:41.211Z,76.15
2018-03-24T22:17:10.008Z,76.13
2018-03-24T22:19:39.186Z,76.76
2018-03-24T22:22:07.917Z,76.97
2018-03-24T22:24:36.799Z,77.34
2018-03-24T22:27:06.655Z,76.89
2018-03-24T22:29:35.620Z,76.63
2018-03-24T22:32:04.954Z,76.49
2018-03-24T22:34:33.512Z,76.46
2018-03-24T22:37:02.189Z,76.72
2018-03-24T22:39:30.986Z,77.16
2018-03-24T22:42:00.483Z,77.92
2018-03-24T22:44:29.190Z,78.43
2018-03-24T22:46:58.087Z,78.68
2018-03-24T22:49:26.859Z,79.09
2018-03-24T22:51:55.963Z,79.75
2018-03-24T22:54:24.747Z,80.30
2018-03-24T22:56:53.621Z,80.32
2018-03-24T22:59:22.479Z,80.40
2018-03-24T23:01:52.915Z,80.17
2018-03-24T23:04:22.117Z,80.02
2018-03-24T23:06:50.959Z,80.31
2018-03-24T23:09:21.107Z,80.07
2018-03-24T23:11:52.358Z,79.92
2018-03-24T23:14:23.551Z,80.13
2018-03-24T23:16:52.335Z,80.12
2018-03-24T23:19:21.019Z,80.16
2018-03-24T23:21:49.837Z,80.58
2018-03-24T23:24:18.521Z,80.95
2018-03-24T23:26:47.221Z,81.08
2018-03-24T23:29:16.845Z,81.19
2018-03-24T23:31:45.714Z,81.26
2018-03-24T23:34:15.152Z,81.42
2018-03-24T23:36:43.817Z,81.63
2018-03-24T23:39:12.493Z,81.69
2018-03-24T23:41:41.131Z,81.52
2018-03-24T23:44:09.818Z,81.63
2018-03-24T23:46:38.486Z,81.56
2018-03-24T23:49:07.275Z,81.58
2018-03-24T23:51:36.661Z,81.72
2018-03-24T23:54:05.300Z,81.94
2018-03-24T23:56:34.756Z,82.14
2018-03-24T23:59:03.983Z,82.50
